Time;durP1;ratioP1;P1;durP2;ratioP2;P2;SDS_P1;SDS_P2;PMS_P1;PMS_P2;Temp;Humidity;BMP_temperature;BMP_pressure;BME280_temperature;BME280_humidity;BME280_pressure;Samples;Min_cycle;Max_cycle;Signal;HPM_P1;HPM_P2
2023/05/19 00:00:13;;;;;;;1.83;1.30;;;;;;;11.53;68.62;101494.41;5069609;28;20304;-66
2023/05/19 00:02:42;;;;;;;3.07;1.50;;;;;;;11.56;68.68;101488.41;5059860;28;20209;-64
2023/05/19 00:05:13;;;;;;;2.67;1.23;;;;;;;11.56;68.39;101484.13;5068180;28;20198;-66
2023/05/19 00:07:44;;;;;;;3.50;1.40;;;;;;;11.55;68.53;101481.50;5072360;28;20288;-63
2023/05/19 00:10:13;;;;;;;1.47;1.17;;;;;;;11.54;68.55;101488.41;5068424;28;20220;-65
2023/05/19 00:12:42;;;;;;;2.17;1.30;;;;;;;11.53;68.76;101483.25;5068921;28;20342;-63
2023/05/19 00:15:12;;;;;;;1.97;1.60;;;;;;;11.51;68.90;101487.50;5072768;28;20252;-65
2023/05/19 00:17:41;;;;;;;2.27;1.50;;;;;;;11.47;68.92;101484.03;5071726;28;20209;-63
2023/05/19 00:20:11;;;;;;;1.93;1.40;;;;;;;11.46;69.05;101486.63;5067407;28;20236;-64
2023/05/19 00:22:39;;;;;;;5.03;1.60;;;;;;;11.47;68.91;101494.38;5071536;28;20209;-64
2023/05/19 00:25:09;;;;;;;1.40;1.10;;;;;;;11.50;69.73;101488.38;5070979;28;20248;-64
2023/05/19 00:27:37;;;;;;;2.40;1.27;;;;;;;11.49;69.66;101486.66;5070733;28;20236;-64
2023/05/19 00:30:07;;;;;;;4.33;1.43;;;;;;;11.47;69.15;101483.19;5071007;28;20243;-65
2023/05/19 00:32:35;;;;;;;3.33;1.30;;;;;;;11.41;69.43;101486.56;5070667;28;20205;-65
2023/05/19 00:35:03;;;;;;;2.50;1.20;;;;;;;11.40;69.62;101487.41;5070633;28;20197;-66
2023/05/19 00:37:31;;;;;;;2.00;1.23;;;;;;;11.37;69.84;101482.22;5068328;28;20206;-66
2023/05/19 00:39:59;;;;;;;1.33;1.20;;;;;;;11.35;69.95;101494.28;5065849;28;20654;-65
2023/05/19 00:42:28;;;;;;;2.63;1.07;;;;;;;11.37;70.14;101488.25;5066420;28;20281;-66
2023/05/19 00:44:56;;;;;;;2.10;1.33;;;;;;;11.40;70.26;101490.00;5071259;28;20212;-64
2023/05/19 00:47:24;;;;;;;2.23;1.10;;;;;;;11.36;70.10;101486.53;5071120;28;20202;-64
2023/05/19 00:49:52;;;;;;;1.63;1.53;;;;;;;11.34;70.34;101483.09;5069871;28;20240;-64
2023/05/19 00:52:20;;;;;;;1.40;1.30;;;;;;;11.34;70.57;101482.19;5069775;28;20588;-64
2023/05/19 00:54:49;;;;;;;1.20;1.10;;;;;;;11.33;70.58;101481.34;5063399;28;20206;-66
2023/05/19 00:57:17;;;;;;;1.37;1.20;;;;;;;11.29;70.93;101478.72;5070914;28;20691;-67
2023/05/19 00:59:47;;;;;;;1.57;1.10;;;;;;;11.25;70.62;101476.97;5067043;28;20212;-65
2023/05/19 01:02:15;;;;;;;1.47;1.13;;;;;;;11.26;70.79;101476.13;5063829;28;20218;-65
2023/05/19 01:04:45;;;;;;;1.50;1.40;;;;;;;11.27;70.92;101473.56;5070692;28;20205;-64
2023/05/19 01:07:14;;;;;;;2.30;1.40;;;;;;;11.30;70.82;101470.13;5068153;28;20232;-64
2023/05/19 01:09:42;;;;;;;4.27;1.50;;;;;;;11.34;70.84;101464.13;5068098;28;20213;-65
2023/05/19 01:12:10;;;;;;;1.93;1.30;;;;;;;11.36;70.90;101465.88;5066790;28;20205;-66
2023/05/19 01:14:38;;;;;;;1.73;1.43;;;;;;;11.35;70.90;101468.47;5071429;28;20666;-66
2023/05/19 01:17:14;;;;;;;1.70;1.30;;;;;;;11.31;70.88;101466.72;5068060;28;20225;-64
2023/05/19 01:20:00;;;;;;;1.53;1.30;;;;;;;11.27;70.82;101467.53;5067394;28;20627;-64
2023/05/19 01:22:45;;;;;;;1.30;1.10;;;;;;;11.26;71.27;101468.38;5058590;28;20205;-65
2023/05/19 01:25:42;;;;;;;3.10;1.40;;;;;;;11.26;71.42;101468.38;5070980;28;20850;-66
2023/05/19 01:28:31;;;;;;;1.40;1.30;;;;;;;11.25;71.59;101458.91;5067962;28;20224;-63
2023/05/19 01:31:01;;;;;;;1.60;1.30;;;;;;;11.29;71.24;101463.25;5059858;28;20243;-64
2023/05/19 01:33:30;;;;;;;3.63;1.50;;;;;;;11.29;71.09;101458.09;5068851;28;20208;-67
2023/05/19 01:35:59;;;;;;;2.13;1.60;;;;;;;11.29;71.30;101455.50;5066598;28;20197;-64
2023/05/19 01:38:29;;;;;;;2.10;1.60;;;;;;;11.27;71.50;101459.81;5068264;28;20300;-65
2023/05/19 01:40:57;;;;;;;1.83;1.60;;;;;;;11.24;71.22;101455.47;5061319;28;20213;-65
2023/05/19 01:43:27;;;;;;;3.77;1.77;;;;;;;11.22;71.77;101458.88;5061262;28;20202;-64
2023/05/19 01:45:57;;;;;;;2.57;1.67;;;;;;;11.21;71.71;101460.59;5073773;28;20284;-64
2023/05/19 01:48:28;;;;;;;2.70;1.60;;;;;;;11.20;71.67;101453.72;5067691;28;20216;-65
2023/05/19 01:50:57;;;;;;;3.67;1.70;;;;;;;11.24;71.75;101449.47;5068323;28;20201;-64
2023/05/19 02:16:12;;;;;;;2.73;1.77;;;;;;;11.37;71.72;101440.94;5069743;28;20662;-63
2023/05/19 02:18:44;;;;;;;1.90;1.70;;;;;;;11.42;71.78;101441.00;5068774;28;20612;-63
2023/05/19 02:32:35;;;;;;;2.47;2.17;;;;;;;11.54;71.18;101439.34;5085795;28;20239;-64
2023/05/19 02:35:03;;;;;;;5.90;2.00;;;;;;;11.54;71.44;101434.19;5090993;28;20206;-63
2023/05/19 02:37:31;;;;;;;2.70;2.10;;;;;;;11.49;71.41;101425.56;5090806;28;20215;-64
2023/05/19 02:39:59;;;;;;;3.93;2.10;;;;;;;11.51;71.64;101431.59;5093690;28;20201;-65
2023/05/19 02:42:27;;;;;;;4.00;2.00;;;;;;;11.55;71.76;101435.91;5094424;28;20208;-64
2023/05/19 02:44:55;;;;;;;2.30;2.10;;;;;;;11.55;71.90;101440.22;5094392;28;20211;-64
2023/05/19 02:47:23;;;;;;;4.37;2.30;;;;;;;11.58;71.64;101441.09;5091561;28;20193;-65
2023/05/19 02:49:52;;;;;;;2.87;2.20;;;;;;;11.58;71.72;101441.09;5086031;28;20204;-64
2023/05/19 02:52:20;;;;;;;4.57;2.00;;;;;;;11.56;71.60;101450.56;5093030;28;20239;-65
2023/05/19 02:54:48;;;;;;;2.83;1.80;;;;;;;11.54;71.91;101447.09;5091015;28;20200;-64
2023/05/19 02:57:16;;;;;;;3.23;2.37;;;;;;;11.50;71.86;101437.59;5092292;28;20682;-63
2023/05/19 02:59:44;;;;;;;3.17;2.53;;;;;;;11.51;72.26;101449.66;5087763;28;20319;-64
2023/05/19 03:02:11;;;;;;;3.50;2.47;;;;;;;11.48;72.18;101439.31;5091602;28;20208;-65
2023/05/19 03:04:41;;;;;;;3.70;2.40;;;;;;;11.50;72.64;101447.94;5093055;28;20670;-67
2023/05/19 03:07:12;;;;;;;4.87;2.10;;;;;;;11.49;72.48;101443.63;5091349;28;20197;-63
2023/05/19 03:09:40;;;;;;;2.73;2.20;;;;;;;11.52;72.55;101445.34;5091170;28;20204;-65
2023/05/19 03:12:08;;;;;;;2.50;2.30;;;;;;;11.54;72.40;101444.50;5093212;28;20662;-64
2023/05/19 03:14:37;;;;;;;3.93;2.30;;;;;;;11.59;72.69;101453.16;5113123;28;20953;-64
2023/05/19 03:17:07;;;;;;;3.80;2.50;;;;;;;11.59;72.91;101447.97;5106485;28;20622;-65
2023/05/19 03:19:35;;;;;;;4.30;2.70;;;;;;;11.61;72.99;101445.44;5111204;27;20208;-64
2023/05/19 03:22:03;;;;;;;4.40;2.83;;;;;;;11.61;73.15;101441.13;5112118;28;20316;-64
2023/05/19 03:24:33;;;;;;;5.57;2.60;;;;;;;11.66;73.13;101450.63;5105168;27;20200;-64
2023/05/19 03:27:01;;;;;;;4.60;2.53;;;;;;;11.65;72.94;101452.34;5111060;28;20216;-64
2023/05/19 03:29:29;;;;;;;3.67;2.33;;;;;;;11.65;73.15;101451.47;5104411;28;20224;-64
2023/05/19 03:31:58;;;;;;;3.97;2.63;;;;;;;11.65;73.36;101451.47;5110891;28;20235;-65
2023/05/19 03:34:26;;;;;;;3.20;2.17;;;;;;;11.65;73.27;101447.16;5110431;28;20204;-64
2023/05/19 03:36:54;;;;;;;5.47;2.70;;;;;;;11.66;73.41;101450.63;5111449;28;20200;-64
2023/05/19 03:39:22;;;;;;;2.43;1.97;;;;;;;11.69;73.45;101453.22;5113284;28;20210;-64
2023/05/19 03:41:51;;;;;;;2.50;2.30;;;;;;;11.69;72.82;101458.38;5106170;27;20221;-63
2023/05/19 03:44:19;;;;;;;3.73;2.40;;;;;;;11.65;72.65;101446.31;5109897;27;20647;-65
2023/05/19 03:46:47;;;;;;;4.00;2.50;;;;;;;11.63;73.28;101450.59;5106343;27;20206;-64
2023/05/19 03:49:15;;;;;;;3.40;2.57;;;;;;;11.60;73.38;101452.31;5108238;28;20730;-64
2023/05/19 03:51:43;;;;;;;5.37;2.60;;;;;;;11.58;73.20;101451.41;5112084;27;20203;-65
2023/05/19 03:54:11;;;;;;;4.30;2.53;;;;;;;11.53;73.61;101450.53;5112842;28;20622;-66
2023/05/19 03:56:39;;;;;;;2.70;2.50;;;;;;;11.46;74.03;101448.75;5110996;27;20207;-66
2023/05/19 03:59:11;;;;;;;4.40;2.70;;;;;;;11.42;74.22;101449.59;5106145;27;20200;-65
2023/05/19 04:01:39;;;;;;;4.27;2.67;;;;;;;11.38;74.53;101447.84;5110973;28;20284;-63
2023/05/19 04:04:07;;;;;;;2.77;2.43;;;;;;;11.38;75.09;101447.84;5112568;28;20685;-64
2023/05/19 04:06:36;;;;;;;3.10;2.67;;;;;;;11.40;74.92;101446.13;5110520;27;20204;-63
2023/05/19 04:09:12;;;;;;;3.73;2.60;;;;;;;11.37;75.06;101451.25;5111697;28;20196;-64
2023/05/19 04:11:40;;;;;;;5.73;2.80;;;;;;;11.35;75.49;101446.09;5112716;28;20600;-65
2023/05/19 04:14:09;;;;;;;3.20;2.90;;;;;;;11.33;75.43;101450.38;5105887;28;20226;-64
2023/05/19 04:16:37;;;;;;;3.43;2.87;;;;;;;11.32;75.67;101452.94;5107156;27;20200;-65
2023/05/19 04:19:05;;;;;;;3.30;2.80;;;;;;;11.35;75.89;101453.84;5110427;28;20287;-65
2023/05/19 04:21:33;;;;;;;3.03;2.43;;;;;;;11.36;75.72;101444.38;5112074;27;20227;-64
2023/05/19 04:24:05;;;;;;;4.07;2.50;;;;;;;11.35;76.00;101453.84;5112076;28;20204;-65
2023/05/19 04:26:33;;;;;;;5.97;2.60;;;;;;;11.35;76.09;101448.69;5111106;27;20199;-63
2023/05/19 04:29:03;;;;;;;3.20;2.40;;;;;;;11.32;76.05;101455.53;5111396;28;20236;-64
2023/05/19 04:31:33;;;;;;;3.03;2.67;;;;;;;11.29;76.13;101442.59;5111045;27;20768;-65
2023/05/19 04:34:01;;;;;;;4.57;2.40;;;;;;;11.32;76.07;101447.78;5104356;28;20197;-64
2023/05/19 04:36:29;;;;;;;2.47;2.13;;;;;;;11.30;76.35;101452.97;5105042;28;20196;-65
2023/05/19 04:39:01;;;;;;;4.47;2.70;;;;;;;11.29;76.27;101453.78;5108440;28;22288;-64
2023/05/19 04:41:29;;;;;;;4.97;2.90;;;;;;;11.26;76.14;101452.91;5112259;28;20320;-64
2023/05/19 04:43:57;;;;;;;2.43;2.23;;;;;;;11.27;76.60;101444.31;5109958;28;20206;-64
2023/05/19 04:46:26;;;;;;;4.00;2.70;;;;;;;11.32;76.68;101448.66;5110472;28;20204;-64
2023/05/19 04:48:55;;;;;;;5.17;2.07;;;;;;;11.35;76.68;101455.56;5106848;28;20211;-65
2023/05/19 04:51:26;;;;;;;2.70;2.27;;;;;;;11.35;76.06;101450.41;5104994;28;20234;-65
2023/05/19 04:53:57;;;;;;;2.80;2.37;;;;;;;11.32;76.01;101455.53;5101162;28;20208;-62
2023/05/19 04:56:26;;;;;;;2.70;2.50;;;;;;;11.29;76.12;101450.34;5110220;28;20218;-61
2023/05/19 04:58:54;;;;;;;4.03;2.30;;;;;;;11.26;76.10;101443.44;5104878;27;20287;-63
2023/05/19 05:01:24;;;;;;;4.97;2.50;;;;;;;11.28;76.40;101449.47;5101882;28;20200;-63
2023/05/19 05:03:57;;;;;;;2.90;2.43;;;;;;;11.26;76.23;101450.31;5105431;27;20237;-62
2023/05/19 05:06:27;;;;;;;4.33;2.90;;;;;;;11.23;76.64;101453.75;5108693;27;20207;-62
2023/05/19 05:08:55;;;;;;;5.33;2.53;;;;;;;11.19;76.50;101453.69;5107662;28;20216;-63
2023/05/19 05:11:24;;;;;;;2.50;2.30;;;;;;;11.14;76.78;101458.81;5104231;28;20208;-64
2023/05/19 05:13:56;;;;;;;3.30;2.50;;;;;;;11.12;77.04;101458.81;5105362;27;20231;-63
2023/05/19 05:16:25;;;;;;;4.23;2.00;;;;;;;11.08;76.93;101454.50;5103169;28;20323;-63
2023/05/19 05:18:54;;;;;;;2.77;2.00;;;;;;;11.08;76.92;101453.59;5106213;28;20253;-65
2023/05/19 05:21:23;;;;;;;2.40;2.20;;;;;;;11.11;77.39;101454.50;5094905;28;20629;-63
2023/05/19 05:23:53;;;;;;;4.27;2.63;;;;;;;11.15;77.03;101460.53;5107799;28;20256;-62
2023/05/19 05:26:22;;;;;;;2.70;2.30;;;;;;;11.16;77.25;101457.13;5110120;28;20210;-63
2023/05/19 05:28:50;;;;;;;3.80;2.50;;;;;;;11.17;77.40;101452.84;5110098;28;20200;-64
2023/05/19 05:31:18;;;;;;;3.30;2.53;;;;;;;11.22;77.25;101451.16;5107587;28;20247;-64
2023/05/19 05:33:46;;;;;;;3.43;2.40;;;;;;;11.20;77.13;101464.03;5102472;28;20223;-64
2023/05/19 05:36:14;;;;;;;2.63;2.27;;;;;;;11.19;76.94;101458.84;5103383;28;20258;-64
2023/05/19 05:38:42;;;;;;;3.57;2.27;;;;;;;11.12;76.67;101458.81;5102766;27;20195;-64
2023/05/19 05:41:11;;;;;;;3.53;2.27;;;;;;;11.04;77.38;101451.84;5105994;28;20212;-63
2023/05/19 05:43:39;;;;;;;3.67;2.40;;;;;;;11.05;77.78;101454.44;5108032;28;20226;-63
2023/05/19 05:46:07;;;;;;;2.43;2.23;;;;;;;11.05;77.97;101454.44;5105333;28;20200;-63
2023/05/19 05:48:36;;;;;;;4.13;2.07;;;;;;;11.09;77.97;101461.38;5095032;28;20288;-62
2023/05/19 05:51:05;;;;;;;2.53;2.00;;;;;;;11.10;78.09;101457.06;5100291;28;20291;-63
2023/05/19 05:53:40;;;;;;;2.40;1.80;;;;;;;11.11;78.20;101458.78;5101553;27;20274;-63
2023/05/19 05:56:12;;;;;;;3.43;2.37;;;;;;;11.11;77.91;101458.78;5099120;28;20285;-63
2023/05/19 05:58:40;;;;;;;2.80;2.30;;;;;;;11.10;77.83;101455.34;5094473;27;20211;-63
2023/05/19 06:01:10;;;;;;;2.27;1.80;;;;;;;11.11;78.22;101451.03;5106031;28;20202;-63
2023/05/19 06:03:40;;;;;;;4.50;2.20;;;;;;;11.12;78.12;101458.81;5099864;28;20227;-63
2023/05/19 06:06:08;;;;;;;3.03;2.07;;;;;;;11.09;78.05;101455.34;5107223;28;20675;-65
2023/05/19 06:08:36;;;;;;;5.60;2.33;;;;;;;11.09;78.19;101452.78;5109417;28;20231;-63
2023/05/19 06:11:07;;;;;;;3.30;2.07;;;;;;;11.11;78.39;101458.78;5102905;28;20794;-64
2023/05/19 06:13:36;;;;;;;2.13;1.93;;;;;;;11.16;78.67;101463.97;5108538;28;20200;-63
2023/05/19 06:16:05;;;;;;;3.67;2.20;;;;;;;11.23;78.31;101458.03;5103267;28;20222;-65
2023/05/19 06:18:33;;;;;;;2.50;1.87;;;;;;;11.29;78.23;101456.38;5083423;28;20219;-62
2023/05/19 06:21:02;;;;;;;4.47;2.17;;;;;;;11.36;77.73;101454.69;5103510;28;20204;-64
2023/05/19 06:23:30;;;;;;;4.77;2.43;;;;;;;11.40;77.81;101453.00;5110958;28;20230;-62
2023/05/19 06:25:58;;;;;;;2.47;2.17;;;;;;;11.41;77.36;101452.16;5107707;28;20640;-63
2023/05/19 06:28:26;;;;;;;3.47;1.83;;;;;;;11.41;77.73;101457.31;5111311;28;20522;-63
2023/05/19 06:30:55;;;;;;;2.20;2.00;;;;;;;11.43;77.35;101453.91;5096861;28;20239;-63
2023/05/19 06:33:23;;;;;;;4.60;2.13;;;;;;;11.46;77.69;101456.50;5102333;28;20206;-63
2023/05/19 06:35:55;;;;;;;2.70;2.23;;;;;;;11.51;77.69;101459.13;5101370;28;20579;-63
2023/05/19 06:38:23;;;;;;;2.30;2.10;;;;;;;11.55;77.31;101459.16;5099196;28;20560;-64
2023/05/19 06:40:51;;;;;;;2.60;1.50;;;;;;;11.58;77.36;101459.16;5104001;28;20638;-63
2023/05/19 06:43:19;;;;;;;5.70;2.53;;;;;;;11.59;77.12;101455.72;5105898;28;20303;-64
2023/05/19 06:45:47;;;;;;;3.70;2.03;;;;;;;11.67;77.25;101457.50;5108435;28;20741;-65
2023/05/19 06:48:16;;;;;;;3.70;2.37;;;;;;;11.69;77.23;101458.38;5103136;28;20278;-63
2023/05/19 06:50:44;;;;;;;2.93;1.87;;;;;;;11.69;77.29;101451.50;5106504;28;20231;-64
2023/05/19 06:53:12;;;;;;;3.43;2.10;;;;;;;11.72;76.99;101453.25;5102508;28;20675;-64
2023/05/19 06:55:40;;;;;;;3.87;2.10;;;;;;;11.73;76.73;101449.81;5103390;28;20203;-63
2023/05/19 06:58:25;;;;;;;2.97;1.93;;;;;;;11.78;77.53;101453.25;5108250;28;20202;-64
2023/05/19 07:00:53;;;;;;;2.30;2.10;;;;;;;11.80;77.02;101456.72;5098020;27;20213;-65
2023/05/19 07:03:22;;;;;;;2.77;1.90;;;;;;;11.78;76.67;101453.25;5098480;27;20208;-64
2023/05/19 07:05:51;;;;;;;3.90;2.00;;;;;;;11.73;77.09;101455.81;5104724;27;20569;-67
2023/05/19 07:08:19;;;;;;;2.50;2.10;;;;;;;11.70;77.28;101454.94;5104518;28;20594;-65
2023/05/19 07:10:46;;;;;;;5.17;2.73;;;;;;;11.65;77.37;101448.91;5105699;27;20228;-63
2023/05/19 07:13:15;;;;;;;6.60;1.83;;;;;;;11.61;77.70;101448.88;5102890;27;20214;-67
2023/05/19 07:15:43;;;;;;;3.03;2.27;;;;;;;11.61;78.05;101454.03;5100998;27;20648;-67
2023/05/19 07:18:10;;;;;;;4.17;2.30;;;;;;;11.64;78.05;101444.59;5100168;27;20207;-67
2023/05/19 07:20:40;;;;;;;3.87;2.13;;;;;;;11.65;78.20;101448.91;5100641;28;20257;-66
2023/05/19 07:23:07;;;;;;;6.13;2.33;;;;;;;11.59;77.84;101445.41;5111701;28;20208;-68
2023/05/19 07:25:35;;;;;;;3.00;2.27;;;;;;;11.53;78.47;101453.13;5104593;28;20207;-69
2023/05/19 07:28:03;;;;;;;4.33;2.10;;;;;;;11.55;78.89;101451.41;5109219;28;20200;-65
2023/05/19 07:30:32;;;;;;;2.67;1.83;;;;;;;11.58;78.62;101451.41;5102924;27;20561;-67
2023/05/19 07:33:00;;;;;;;4.53;2.30;;;;;;;11.63;78.47;101443.69;5104572;27;20192;-64
2023/05/19 07:35:28;;;;;;;5.87;2.87;;;;;;;11.69;78.33;101450.63;5095099;27;20305;-66
2023/05/19 07:37:57;;;;;;;3.67;2.30;;;;;;;11.71;77.95;101454.06;5106669;28;20850;-64
2023/05/19 07:40:25;;;;;;;4.10;2.43;;;;;;;11.68;77.78;101451.50;5102112;27;20196;-63
2023/05/19 07:42:53;;;;;;;6.47;2.83;;;;;;;11.68;78.07;101451.50;5097475;28;20215;-62
2023/05/19 07:45:21;;;;;;;5.20;2.30;;;;;;;11.71;78.67;101451.50;5102508;27;20218;-63
2023/05/19 07:47:49;;;;;;;3.83;2.30;;;;;;;11.78;78.35;101454.16;5106600;27;20211;-65
2023/05/19 07:50:17;;;;;;;4.30;2.60;;;;;;;11.82;77.86;101448.16;5110896;28;20732;-67
2023/05/19 07:52:45;;;;;;;4.00;2.93;;;;;;;11.84;78.13;101454.19;5111132;28;20560;-62
2023/05/19 07:55:14;;;;;;;2.87;2.47;;;;;;;11.89;78.10;101450.78;5103178;27;20196;-63
2023/05/19 07:57:42;;;;;;;4.77;2.53;;;;;;;11.92;77.80;101450.81;5110004;27;20926;-64
2023/05/19 08:00:11;;;;;;;8.30;2.60;;;;;;;11.90;77.71;101452.53;5110338;28;20215;-64
2023/05/19 08:02:39;;;;;;;4.53;2.73;;;;;;;11.94;77.46;101452.53;5100679;27;20208;-68
2023/05/19 08:05:09;;;;;;;3.23;2.60;;;;;;;11.96;77.75;101450.81;5106141;27;20224;-66
2023/05/19 08:07:37;;;;;;;5.20;2.83;;;;;;;11.95;77.34;101450.81;5102224;28;20541;-63
2023/05/19 08:10:05;;;;;;;7.13;2.70;;;;;;;11.90;77.65;101447.38;5111083;28;20658;-66
2023/05/19 08:12:34;;;;;;;4.63;2.50;;;;;;;11.90;77.47;101452.53;5105334;28;20659;-66
2023/05/19 08:15:02;;;;;;;8.53;3.03;;;;;;;11.90;77.70;101453.38;5109585;27;20207;-64
2023/05/19 08:17:30;;;;;;;4.87;2.80;;;;;;;11.91;77.96;101451.66;5105714;27;20680;-65
2023/05/19 08:19:59;;;;;;;4.87;2.53;;;;;;;11.93;77.91;101453.41;5106789;27;20196;-65
2023/05/19 08:22:27;;;;;;;5.87;2.83;;;;;;;11.96;77.97;101457.72;5105608;27;20291;-63
2023/05/19 08:24:55;;;;;;;5.47;2.80;;;;;;;11.97;77.64;101455.16;5101268;28;20789;-64
2023/05/19 08:27:23;;;;;;;5.37;2.90;;;;;;;11.95;76.72;101449.09;5111360;28;20275;-62
2023/05/19 08:29:54;;;;;;;5.83;3.33;;;;;;;11.94;77.37;101449.09;5107106;28;20196;-62
2023/05/19 08:32:22;;;;;;;7.90;3.47;;;;;;;11.94;77.72;101451.69;5106444;27;20322;-62
2023/05/19 08:34:51;;;;;;;6.70;3.40;;;;;;;11.96;77.54;101450.81;5110182;28;20672;-63
2023/05/19 08:37:18;;;;;;;7.37;3.60;;;;;;;11.97;77.21;101447.41;5108686;28;20203;-64
2023/05/19 08:39:46;;;;;;;5.63;2.77;;;;;;;12.01;77.61;101446.56;5108366;28;20791;-64
2023/05/19 08:42:14;;;;;;;5.73;3.30;;;;;;;12.07;77.42;101446.56;5108656;28;20192;-63
2023/05/19 08:44:42;;;;;;;5.03;3.07;;;;;;;12.15;76.92;101443.16;5100843;28;20212;-63
2023/05/19 08:47:12;;;;;;;8.77;2.90;;;;;;;12.19;77.06;101447.50;5102482;28;20200;-66
2023/05/19 08:49:45;;;;;;;6.40;3.20;;;;;;;12.21;77.03;101445.78;5109446;28;20638;-63
2023/05/19 08:52:23;;;;;;;9.87;3.27;;;;;;;12.22;76.54;101447.50;5102830;28;20284;-61
2023/05/19 08:55:01;;;;;;;9.37;3.70;;;;;;;12.20;76.70;101444.91;5093087;27;20515;-63
2023/05/19 08:57:29;;;;;;;8.23;3.90;;;;;;;12.22;75.96;101445.78;5104904;28;20655;-63
2023/05/19 08:59:58;;;;;;;9.83;3.60;;;;;;;12.22;75.60;101445.78;5107243;27;20207;-65
2023/05/19 09:02:28;;;;;;;9.03;4.17;;;;;;;12.28;75.85;101447.53;5100292;28;20216;-64
2023/05/19 09:04:56;;;;;;;6.87;3.70;;;;;;;12.35;76.13;101446.69;5103099;28;20299;-64
2023/05/19 09:07:26;;;;;;;10.43;4.00;;;;;;;12.37;75.64;101444.09;5100811;27;20654;-65
2023/05/19 09:09:54;;;;;;;11.57;3.63;;;;;;;12.38;75.05;101451.88;5105212;28;20195;-65
2023/05/19 09:12:22;;;;;;;8.67;3.87;;;;;;;12.37;75.10;101441.53;5095100;28;20223;-63
2023/05/19 09:14:50;;;;;;;9.67;4.17;;;;;;;12.39;75.30;101453.59;5105483;28;20630;-63
2023/05/19 09:17:18;;;;;;;10.10;3.90;;;;;;;12.43;74.81;101449.31;5107017;28;20659;-63
2023/05/19 09:19:48;;;;;;;11.23;4.37;;;;;;;12.41;75.30;101457.06;5103521;28;20204;-63
2023/05/19 09:22:17;;;;;;;7.87;3.80;;;;;;;12.37;74.69;101451.88;5100389;27;20202;-63
2023/05/19 09:24:47;;;;;;;7.47;3.97;;;;;;;12.38;74.63;101451.88;5103184;28;20420;-62
2023/05/19 09:27:20;;;;;;;13.30;3.63;;;;;;;12.46;74.91;101451.91;5094390;27;20197;-63
2023/05/19 09:29:48;;;;;;;8.70;3.80;;;;;;;12.49;73.96;101445.03;5091831;28;20213;-63
2023/05/19 09:32:24;;;;;;;12.30;4.20;;;;;;;12.51;73.85;101450.19;5101579;28;20235;-66
2023/05/19 09:34:55;;;;;;;11.63;4.10;;;;;;;12.50;73.77;101448.47;5101729;27;20192;-63
2023/05/19 09:37:24;;;;;;;6.90;3.30;;;;;;;12.50;73.78;101441.56;5108721;28;20216;-63
2023/05/19 09:39:53;;;;;;;11.90;4.80;;;;;;;12.51;73.68;101445.88;5103655;28;20200;-63
2023/05/19 09:42:25;;;;;;;8.67;3.97;;;;;;;12.58;74.47;101445.03;5095968;27;20200;-64
2023/05/19 09:45:00;;;;;;;7.47;3.80;;;;;;;12.66;73.84;101441.59;5095974;28;20331;-63
2023/05/19 09:47:28;;;;;;;8.50;4.17;;;;;;;12.74;73.86;101445.06;5097137;28;20624;-62
2023/05/19 09:49:57;;;;;;;7.03;4.07;;;;;;;12.76;72.91;101443.38;5100700;28;20260;-59
2023/05/19 09:52:26;;;;;;;11.27;4.30;;;;;;;12.77;73.40;101445.09;5098543;27;20211;-63
2023/05/19 09:54:54;;;;;;;11.07;4.43;;;;;;;12.83;73.71;101442.50;5097194;27;20303;-62
2023/05/19 09:57:27;;;;;;;10.90;4.47;;;;;;;12.92;73.43;101439.94;5099364;28;20207;-62
2023/05/19 09:59:56;;;;;;;9.60;4.77;;;;;;;12.99;72.58;101445.97;5098276;28;20200;-62
2023/05/19 10:02:25;;;;;;;11.37;4.40;;;;;;;13.04;72.56;101436.50;5101746;28;20300;-61
2023/05/19 10:04:55;;;;;;;9.30;3.90;;;;;;;13.07;72.23;101444.28;5099493;28;20232;-63
2023/05/19 10:07:24;;;;;;;7.10;4.20;;;;;;;13.11;72.30;101447.69;5103614;28;20259;-62
2023/05/19 10:09:54;;;;;;;10.20;4.37;;;;;;;13.13;72.50;101448.59;5101684;28;20710;-63
2023/05/19 10:12:26;;;;;;;9.97;4.47;;;;;;;13.14;72.15;101445.13;5096740;28;20227;-66
2023/05/19 10:14:55;;;;;;;8.67;4.67;;;;;;;13.11;72.45;101445.13;5096026;28;20196;-68
2023/05/19 10:17:25;;;;;;;7.30;4.40;;;;;;;13.11;71.65;101445.13;5104509;28;20286;-60
2023/05/19 10:19:54;;;;;;;11.47;4.50;;;;;;;13.06;71.76;101443.38;5098815;28;20559;-62
2023/05/19 10:22:24;;;;;;;10.80;4.53;;;;;;;13.09;72.47;101439.09;5108825;28;20666;-64
2023/05/19 10:24:51;;;;;;;8.77;4.53;;;;;;;13.14;71.80;101437.34;5102903;28;20212;-62
2023/05/19 10:27:20;;;;;;;9.03;4.07;;;;;;;13.19;71.70;101431.34;5105739;28;20218;-61
2023/05/19 10:29:49;;;;;;;8.80;4.00;;;;;;;13.22;71.36;101421.00;5105935;28;20199;-64
2023/05/19 10:32:21;;;;;;;8.43;4.30;;;;;;;13.28;71.12;101422.72;5092312;28;20572;-62
2023/05/19 10:35:07;;;;;;;10.07;4.13;;;;;;;13.32;71.04;101428.75;5103890;28;20893;-63
2023/05/19 10:37:45;;;;;;;9.70;4.20;;;;;;;13.38;71.13;101418.41;5102413;28;20210;-62
2023/05/19 10:40:20;;;;;;;6.53;3.83;;;;;;;13.42;70.17;101421.00;5102300;27;20203;-62
2023/05/19 10:43:02;;;;;;;10.90;4.77;;;;;;;13.48;70.76;101420.13;5103819;28;20599;-62
2023/05/19 10:45:36;;;;;;;9.30;4.20;;;;;;;13.57;69.88;101419.25;5113891;28;20844;-61
2023/05/19 10:48:04;;;;;;;7.73;3.63;;;;;;;13.66;69.44;101425.28;5109189;28;20729;-62
2023/05/19 10:50:37;;;;;;;7.40;3.93;;;;;;;13.73;69.57;101421.81;5112063;27;20204;-61
2023/05/19 10:53:16;;;;;;;9.37;4.10;;;;;;;13.82;69.32;101420.91;5103667;28;20377;-61
2023/05/19 10:55:47;;;;;;;8.30;4.53;;;;;;;13.90;69.29;101418.31;5111596;27;20202;-62
2023/05/19 10:58:15;;;;;;;7.57;4.43;;;;;;;13.89;68.73;101417.44;5110077;27;20188;-62
2023/05/19 11:00:43;;;;;;;9.07;3.93;;;;;;;13.90;68.69;101424.34;5112331;28;20228;-60
2023/05/19 11:03:16;;;;;;;8.93;4.43;;;;;;;13.94;68.45;101420.00;5108437;28;20696;-60
2023/05/19 11:05:45;;;;;;;10.97;4.00;;;;;;;14.02;68.41;101418.25;5104885;28;20212;-61
2023/05/19 11:08:16;;;;;;;7.10;4.40;;;;;;;14.12;68.18;101422.53;5103590;27;20203;-63
2023/05/19 11:10:45;;;;;;;9.43;4.67;;;;;;;14.25;68.28;101419.03;5101229;27;20219;-63
2023/05/19 11:13:19;;;;;;;10.33;4.80;;;;;;;14.36;67.33;101423.28;5099632;27;20304;-62
2023/05/19 11:15:49;;;;;;;10.53;4.63;;;;;;;14.41;67.34;101417.22;5098615;27;20203;-63
2023/05/19 11:18:19;;;;;;;9.33;4.30;;;;;;;14.52;66.80;101418.94;5102609;27;21211;-62
2023/05/19 11:20:57;;;;;;;7.83;4.20;;;;;;;14.52;66.19;101416.34;5110969;27;20646;-63
2023/05/19 11:23:27;;;;;;;6.63;3.73;;;;;;;14.47;66.16;101417.19;5099640;27;20202;-63
2023/05/19 11:25:55;;;;;;;9.52;4.15;;;;;;;14.42;66.34;101418.94;5109451;28;20240;-63
2023/05/19 11:28:24;;;;;;;7.83;3.70;;;;;;;14.31;66.56;101419.84;5102299;27;20299;-64
2023/05/19 11:30:56;;;;;;;9.57;4.33;;;;;;;14.25;67.07;101425.94;5109570;28;20231;-62
2023/05/19 11:33:26;;;;;;;6.77;4.20;;;;;;;14.18;67.28;101421.66;5112632;27;20646;-65
2023/05/19 11:35:56;;;;;;;6.40;3.90;;;;;;;14.16;67.40;101418.19;5112465;28;20215;-64
2023/05/19 11:38:24;;;;;;;8.00;4.30;;;;;;;14.18;67.53;101424.25;5105920;27;20224;-60
2023/05/19 11:40:54;;;;;;;7.70;4.33;;;;;;;14.23;67.14;101419.91;5103396;27;20200;-61
2023/05/19 11:43:23;;;;;;;12.90;4.17;;;;;;;14.27;67.83;101419.00;5106716;27;20204;-62
2023/05/19 11:45:51;;;;;;;6.13;3.73;;;;;;;14.35;67.65;101422.41;5103356;28;20346;-62
2023/05/19 11:48:21;;;;;;;7.70;4.10;;;;;;;14.35;67.09;101421.56;5111345;28;20258;-62
2023/05/19 11:50:49;;;;;;;5.90;3.95;;;;;;;14.34;67.02;101423.31;5105628;28;20207;-61
2023/05/19 11:53:18;;;;;;;9.97;4.23;;;;;;;14.34;67.34;101423.31;5107212;28;20646;-66
2023/05/19 11:55:47;;;;;;;6.30;3.83;;;;;;;14.42;67.15;101418.06;5108766;27;20239;-63
2023/05/19 11:58:18;;;;;;;8.25;4.32;;;;;;;14.49;66.81;101419.75;5106774;28;20196;-62
2023/05/19 12:00:46;;;;;;;5.97;3.93;;;;;;;14.55;67.03;101418.91;5110235;28;20207;-63
2023/05/19 12:03:15;;;;;;;5.57;3.70;;;;;;;14.59;66.34;101424.06;5099989;28;20204;-62
2023/05/19 12:05:45;;;;;;;6.67;3.50;;;;;;;14.57;66.42;101419.75;5109674;28;20674;-62
2023/05/19 12:08:16;;;;;;;7.38;4.28;;;;;;;14.61;66.39;101424.03;5103738;28;20199;-61